Midvalley, Pennsylvania
Current Conditions -  °F | °C
As of 11:55 AM on Sunday 23 Nov 2014 (Local Time) from KHZL Reporting Station
Scattered Clouds Scattered Clouds  
Wind Chill: 13°   Ceiling: Unl
Heat Index: 13°   Visibility: 10mi
Dew Point: -2°   Wind: 0mph
Humidity: 36%   Direction: NA
Pressure: 30.13"   Gusts: NA
Location:  40.8229°N, 76.3735°W
Report Text: KHZL 231655Z AUTO 00000KT 10SM SCT110 13/M02 A3013 RMK AO2
Loading
Personal Weather Stations






























Interactive Weather Map New forecast layout! Learn more

10-Day Weather Forecast

Advertisements
Track Severe Weather on mobile